Time;durP1;ratioP1;P1;durP2;ratioP2;P2;SDS_P1;SDS_P2;PMS_P1;PMS_P2;Temp;Humidity;BMP_temperature;BMP_pressure;BME280_temperature;BME280_humidity;BME280_pressure;Samples;Min_cycle;Max_cycle;Signal;HPM_P1;HPM_P2
2022/07/31 00:02:28;;;;;;;10.23;5.22;;;;;;;20.31;64.31;101554.75;5265534;28;20036;-76
2022/07/31 00:05:00;;;;;;;10.03;6.33;;;;;;;20.23;63.91;101556.84;5283760;28;20024;-76
2022/07/31 00:07:31;;;;;;;7.53;5.67;;;;;;;20.32;64.42;101561.75;5283271;28;20085;-76
2022/07/31 00:10:04;;;;;;;12.43;6.17;;;;;;;20.34;64.46;101553.75;5283187;28;20033;-75
2022/07/31 00:12:35;;;;;;;8.80;5.82;;;;;;;20.22;64.55;101548.06;5283088;28;20052;-76
2022/07/31 00:15:08;;;;;;;20.70;6.93;;;;;;;20.14;65.35;101549.25;5283627;28;20475;-75
2022/07/31 00:17:41;;;;;;;14.55;5.82;;;;;;;20.18;64.78;101551.72;5282878;28;20039;-76
2022/07/31 00:20:15;;;;;;;12.63;6.43;;;;;;;20.09;65.25;101546.81;5282785;28;20060;-76
2022/07/31 00:22:47;;;;;;;14.23;4.80;;;;;;;20.35;65.78;101544.88;5283508;28;20205;-76
2022/07/31 00:25:19;;;;;;;12.40;5.90;;;;;;;20.12;64.52;101544.03;5282679;28;20371;-76
2022/07/31 00:27:50;;;;;;;11.20;5.40;;;;;;;20.10;64.62;101542.41;5264844;28;20036;-76
2022/07/31 00:30:22;;;;;;;11.90;6.27;;;;;;;20.06;65.17;101543.44;5283184;28;20486;-76
2022/07/31 00:32:53;;;;;;;10.02;6.25;;;;;;;20.14;64.48;101536.03;5282705;28;20029;-75
2022/07/31 00:35:25;;;;;;;9.70;5.87;;;;;;;20.07;64.49;101537.22;5282721;28;20104;-75
2022/07/31 00:37:56;;;;;;;8.13;5.87;;;;;;;20.08;64.67;101547.75;5282653;28;20040;-75
2022/07/31 00:40:28;;;;;;;8.13;5.90;;;;;;;19.90;66.04;101559.06;5282729;28;20028;-75
2022/07/31 00:42:59;;;;;;;9.73;6.03;;;;;;;19.93;64.44;101551.88;5282579;28;20032;-75
2022/07/31 00:45:30;;;;;;;9.77;6.30;;;;;;;19.95;63.64;101546.53;5282191;28;20087;-76
2022/07/31 00:48:02;;;;;;;8.57;5.80;;;;;;;19.90;64.87;101543.19;5283362;28;20275;-76
2022/07/31 00:50:35;;;;;;;11.38;6.00;;;;;;;19.78;64.92;101558.63;5283352;28;20051;-76
2022/07/31 00:53:06;;;;;;;;;;;;;;;19.98;63.05;101555.19;5282703;28;20040;-76
2022/07/31 00:55:37;;;;;;;10.63;6.27;;;;;;;19.78;63.51;101541.91;5282708;28;20379;-76
2022/07/31 00:58:09;;;;;;;10.83;6.80;;;;;;;19.83;64.15;101537.28;5283298;28;20066;-76
2022/07/31 01:00:40;;;;;;;8.03;5.97;;;;;;;19.71;63.39;101540.38;5282581;28;20036;-76
2022/07/31 01:03:11;;;;;;;9.00;5.80;;;;;;;19.62;63.99;101542.44;5282714;28;20028;-76
2022/07/31 01:05:43;;;;;;;12.10;6.30;;;;;;;19.55;64.00;101533.03;5282539;28;20024;-76
2022/07/31 01:08:14;;;;;;;10.63;5.77;;;;;;;19.58;64.79;101540.00;5282470;28;20483;-76
2022/07/31 01:10:56;;;;;;;8.70;6.07;;;;;;;19.58;64.69;101543.50;5283577;28;20028;-76
2022/07/31 01:13:36;;;;;;;8.48;5.97;;;;;;;19.67;64.82;101536.97;5286593;28;20478;-76
2022/07/31 01:16:09;;;;;;;10.57;5.75;;;;;;;19.50;65.28;101545.59;5290565;28;20131;-76
2022/07/31 01:18:42;;;;;;;9.73;5.75;;;;;;;19.35;65.65;101541.72;5282973;28;20028;-76
2022/07/31 01:21:38;;;;;;;13.15;6.10;;;;;;;19.43;66.00;101547.59;5282534;28;20464;-76
2022/07/31 01:24:53;;;;;;;10.32;6.53;;;;;;;19.43;65.43;101547.59;5284497;28;20025;-76
2022/07/31 01:27:36;;;;;;;7.68;6.10;;;;;;;19.37;66.87;101544.28;5286755;28;20032;-76
2022/07/31 01:30:07;;;;;;;9.52;7.03;;;;;;;19.28;67.17;101538.44;5286532;28;20039;-76
2022/07/31 01:32:44;;;;;;;9.33;5.73;;;;;;;19.30;67.53;101533.97;5286149;28;20029;-76
2022/07/31 01:35:25;;;;;;;12.43;6.28;;;;;;;19.31;67.22;101530.41;5286968;28;20048;-77
2022/07/31 01:38:18;;;;;;;11.40;7.00;;;;;;;19.29;67.10;101531.38;5286699;28;20380;-76
2022/07/31 01:40:59;;;;;;;9.43;5.97;;;;;;;19.36;68.09;101529.38;5268655;28;20262;-77
2022/07/31 01:43:36;;;;;;;9.15;6.00;;;;;;;19.31;68.09;101525.09;5286256;28;20035;-76
2022/07/31 01:46:12;;;;;;;11.07;6.18;;;;;;;19.35;68.34;101525.84;5286625;28;20032;-77
2022/07/31 01:48:45;;;;;;;18.23;7.45;;;;;;;19.12;69.10;101526.72;5286080;28;20147;-76
2022/07/31 01:51:17;;;;;;;13.48;6.95;;;;;;;19.03;69.58;101535.84;5285951;28;20047;-76
2022/07/31 01:53:49;;;;;;;;;;;;;;;19.18;66.88;101530.94;5268757;28;20038;-77
2022/07/31 01:56:23;;;;;;;12.65;6.72;;;;;;;19.00;69.16;101529.78;5287017;28;19913;-76
2022/07/31 01:58:57;;;;;;;8.00;6.95;;;;;;;18.99;69.91;101530.72;5289707;28;20112;-77
2022/07/31 02:01:30;;;;;;;16.10;7.25;;;;;;;19.05;69.50;101531.38;5292077;28;20039;-77
2022/07/31 02:04:02;;;;;;;13.07;7.28;;;;;;;18.99;68.71;101528.94;5285735;28;20028;-77
2022/07/31 02:06:35;;;;;;;10.35;6.70;;;;;;;18.94;69.31;101522.97;5267671;28;20033;-77
2022/07/31 02:09:06;;;;;;;17.08;6.60;;;;;;;19.04;68.62;101526.13;5285083;28;20131;-76
2022/07/31 02:11:37;;;;;;;14.03;7.40;;;;;;;18.89;68.71;101527.56;5250933;28;20040;-77
2022/07/31 02:14:09;;;;;;;11.00;7.07;;;;;;;18.93;68.89;101521.25;5285544;28;20028;-77
2022/07/31 02:16:40;;;;;;;11.47;6.40;;;;;;;18.84;69.58;101525.09;5285995;28;20036;-77
2022/07/31 02:19:13;;;;;;;13.53;7.00;;;;;;;18.74;69.07;101521.00;5285386;28;20464;-76
2022/07/31 02:21:45;;;;;;;9.43;6.78;;;;;;;18.81;69.39;101521.66;5285383;28;20028;-76
2022/07/31 02:24:16;;;;;;;19.50;7.70;;;;;;;18.69;69.31;101517.66;5285293;28;20032;-76
2022/07/31 02:26:48;;;;;;;12.87;7.10;;;;;;;18.82;70.06;101515.44;5285494;28;20476;-76
2022/07/31 02:29:20;;;;;;;9.50;6.93;;;;;;;18.64;69.55;101522.25;5285082;28;20033;-76
2022/07/31 02:31:54;;;;;;;15.43;7.38;;;;;;;18.62;70.78;101522.28;5285083;28;20490;-75
2022/07/31 02:34:27;;;;;;;12.68;6.75;;;;;;;18.66;70.77;101525.69;5285362;28;20024;-76
2022/07/31 02:37:01;;;;;;;14.38;7.72;;;;;;;18.49;71.73;101529.78;5285031;28;20096;-76
2022/07/31 02:39:35;;;;;;;9.40;7.05;;;;;;;18.48;72.18;101528.06;5285056;28;20037;-76
2022/07/31 02:42:07;;;;;;;11.75;7.07;;;;;;;18.49;72.07;101519.22;5286117;28;20203;-76
2022/07/31 02:44:39;;;;;;;14.65;7.50;;;;;;;18.53;72.02;101518.19;5296923;28;20150;-75
2022/07/31 02:47:11;;;;;;;10.20;7.40;;;;;;;18.56;72.39;101525.13;5286863;28;20032;-75
2022/07/31 02:49:44;;;;;;;14.75;7.63;;;;;;;18.58;72.28;101518.06;5284457;28;20048;-75
2022/07/31 02:52:15;;;;;;;16.42;9.45;;;;;;;18.59;72.55;101519.75;5266879;28;20498;-75
2022/07/31 02:54:49;;;;;;;11.10;7.47;;;;;;;18.48;72.13;101511.34;5284427;28;20044;-76
2022/07/31 02:57:21;;;;;;;12.73;7.30;;;;;;;18.58;72.86;101512.78;5284753;28;20126;-75
2022/07/31 02:59:52;;;;;;;12.33;8.47;;;;;;;18.52;72.93;101512.97;5266005;28;20032;-75
2022/07/31 03:02:24;;;;;;;11.63;7.47;;;;;;;18.64;73.04;101501.13;5284475;28;20101;-76
2022/07/31 03:04:55;;;;;;;11.30;7.43;;;;;;;18.57;72.89;101498.69;5284187;28;20087;-75
2022/07/31 03:07:26;;;;;;;16.47;9.10;;;;;;;18.62;72.75;101508.25;5266084;28;20041;-75
2022/07/31 03:09:58;;;;;;;9.93;7.87;;;;;;;18.38;73.05;101505.50;5284171;28;20107;-75
2022/07/31 03:12:29;;;;;;;11.57;8.00;;;;;;;18.31;73.31;101504.00;5284035;28;20064;-75
2022/07/31 03:15:02;;;;;;;12.60;9.00;;;;;;;18.32;73.81;101501.31;5284275;28;20033;-75
2022/07/31 03:17:33;;;;;;;11.25;8.43;;;;;;;18.36;73.54;101500.28;5283829;28;20020;-75
2022/07/31 03:20:05;;;;;;;11.40;8.20;;;;;;;18.21;73.99;101499.03;5284252;28;20517;-75
2022/07/31 03:22:38;;;;;;;18.77;8.20;;;;;;;18.40;74.65;101496.66;5283908;28;20033;-76
2022/07/31 03:25:10;;;;;;;16.58;8.25;;;;;;;18.22;74.17;101495.50;5265630;28;20448;-76
2022/07/31 03:27:42;;;;;;;14.27;9.55;;;;;;;18.29;74.39;101496.16;5284032;28;20025;-75
2022/07/31 03:30:17;;;;;;;12.20;9.03;;;;;;;18.19;74.37;101492.97;5284002;28;20033;-75
2022/07/31 03:32:48;;;;;;;13.20;8.85;;;;;;;18.09;73.78;101499.44;5283792;28;20036;-75
2022/07/31 03:35:20;;;;;;;13.33;10.23;;;;;;;18.11;74.20;101494.09;5265770;28;20028;-76
2022/07/31 03:37:52;;;;;;;12.68;10.30;;;;;;;18.08;74.67;101497.72;5283900;28;20039;-75
2022/07/31 03:40:24;;;;;;;15.00;10.98;;;;;;;18.11;74.34;101487.06;5283893;28;20040;-75
2022/07/31 03:42:56;;;;;;;14.80;9.37;;;;;;;18.10;74.65;101487.97;5283432;28;20031;-75
2022/07/31 03:45:28;;;;;;;11.43;10.18;;;;;;;17.95;74.88;101486.72;5283310;28;20036;-75
2022/07/31 03:48:01;;;;;;;14.35;10.52;;;;;;;18.05;75.17;101487.28;5283567;28;20062;-75
2022/07/31 03:50:36;;;;;;;14.65;11.07;;;;;;;18.12;74.90;101488.78;5284550;28;20049;-75
2022/07/31 03:53:09;;;;;;;15.25;10.35;;;;;;;18.13;74.71;101487.88;5283221;28;20040;-76
2022/07/31 03:55:42;;;;;;;14.68;9.93;;;;;;;18.10;74.50;101487.13;5283467;28;20041;-76
2022/07/31 03:58:14;;;;;;;14.80;11.30;;;;;;;17.98;74.49;101494.53;5283343;28;20082;-75
2022/07/31 04:00:46;;;;;;;11.10;10.00;;;;;;;18.01;74.58;101488.28;5283320;28;20086;-76
2022/07/31 04:03:17;;;;;;;14.55;11.32;;;;;;;18.02;74.64;101490.84;5283995;28;20048;-75
2022/07/31 04:05:48;;;;;;;16.67;10.77;;;;;;;18.09;74.75;101495.94;5283340;28;20033;-75
2022/07/31 04:08:20;;;;;;;12.00;10.73;;;;;;;18.09;74.44;101488.88;5283216;28;20107;-75
2022/07/31 04:10:51;;;;;;;16.57;10.50;;;;;;;17.99;74.91;101492.75;5266396;28;20032;-75
2022/07/31 04:13:22;;;;;;;22.67;12.20;;;;;;;17.91;75.04;101490.34;5295882;28;20371;-75
2022/07/31 04:15:54;;;;;;;11.37;10.13;;;;;;;17.96;75.28;101493.69;5289754;28;20513;-75
2022/07/31 04:18:25;;;;;;;14.80;10.17;;;;;;;17.99;75.54;101500.66;5283232;28;20468;-75
2022/07/31 04:20:56;;;;;;;14.17;9.13;;;;;;;18.00;75.48;101499.72;5283110;28;20043;-75
2022/07/31 04:23:28;;;;;;;16.93;10.23;;;;;;;18.03;75.21;101503.16;5282941;28;20068;-75
2022/07/31 04:25:59;;;;;;;11.63;10.30;;;;;;;18.04;75.50;101510.13;5283431;28;20036;-75
2022/07/31 04:28:31;;;;;;;15.23;9.83;;;;;;;18.10;76.01;101513.50;5283405;28;20033;-75
2022/07/31 04:31:02;;;;;;;11.97;9.17;;;;;;;17.99;75.94;101511.22;5283011;28;20036;-75
2022/07/31 04:33:34;;;;;;;10.17;8.77;;;;;;;18.00;75.58;101510.28;5265249;28;20032;-74
2022/07/31 04:36:05;;;;;;;10.50;8.77;;;;;;;18.04;75.97;101504.00;5282922;28;20060;-75
2022/07/31 04:38:36;;;;;;;11.17;8.57;;;;;;;17.98;76.44;101510.34;5283774;28;20164;-75
2022/07/31 04:41:08;;;;;;;12.73;8.63;;;;;;;18.01;76.55;101515.50;5282768;28;20036;-74
2022/07/31 04:43:39;;;;;;;9.43;8.53;;;;;;;18.04;76.67;101510.13;5283230;28;20447;-76
2022/07/31 04:46:10;;;;;;;9.83;7.57;;;;;;;18.02;77.00;101509.31;5282977;28;20025;-75
2022/07/31 04:48:42;;;;;;;11.93;8.30;;;;;;;18.04;77.21;101506.63;5282715;28;20055;-75
2022/07/31 04:51:23;;;;;;;9.73;7.27;;;;;;;18.07;77.17;101505.69;5282721;28;20040;-76
2022/07/31 04:53:54;;;;;;;11.32;7.20;;;;;;;17.97;78.06;101499.84;5283423;28;20060;-76
2022/07/31 04:56:32;;;;;;;9.57;6.90;;;;;;;17.99;78.10;101504.16;5283736;28;20146;-75
2022/07/31 04:59:08;;;;;;;8.90;7.13;;;;;;;18.02;78.54;101505.84;5291417;28;20054;-75
2022/07/31 05:01:40;;;;;;;9.55;6.80;;;;;;;18.02;78.84;101506.69;5282534;28;20044;-75
2022/07/31 05:04:12;;;;;;;;;;;;;;;18.14;76.44;101505.41;5282378;28;20029;-76
2022/07/31 05:06:46;;;;;;;10.52;7.07;;;;;;;18.06;79.51;101499.53;5281982;28;19912;-77
2022/07/31 05:09:22;;;;;;;8.32;6.13;;;;;;;18.01;79.41;101501.47;5264810;28;20040;-76
2022/07/31 05:11:53;;;;;;;9.27;6.65;;;;;;;18.00;79.66;101503.25;5282874;28;20029;-76
2022/07/31 05:14:26;;;;;;;11.20;6.23;;;;;;;17.97;79.75;101500.69;5282603;28;20070;-75
2022/07/31 05:16:57;;;;;;;8.07;6.75;;;;;;;18.05;79.86;101487.28;5282527;28;20047;-76
2022/07/31 05:19:29;;;;;;;9.00;6.67;;;;;;;18.06;80.25;101488.97;5282915;28;20068;-74
2022/07/31 05:22:00;;;;;;;10.37;6.60;;;;;;;18.03;80.62;101483.81;5282343;28;20059;-74
2022/07/31 05:24:32;;;;;;;8.50;5.63;;;;;;;18.10;80.14;101485.34;5282409;28;20270;-74
2022/07/31 05:27:03;;;;;;;8.90;5.63;;;;;;;18.09;80.31;101491.50;5282296;28;20028;-74
2022/07/31 05:29:34;;;;;;;8.00;5.80;;;;;;;18.10;80.95;101495.03;5282581;28;20029;-75
2022/07/31 05:32:06;;;;;;;10.67;5.63;;;;;;;18.13;80.85;101487.00;5282227;28;20095;-74
2022/07/31 05:34:37;;;;;;;7.67;5.43;;;;;;;18.11;80.75;101481.81;5282126;28;20032;-73
2022/07/31 05:37:09;;;;;;;7.53;5.30;;;;;;;18.16;81.31;101485.13;5282245;28;20045;-74
2022/07/31 05:39:40;;;;;;;8.17;5.00;;;;;;;18.09;81.69;101483.59;5282306;28;20055;-75
2022/07/31 05:42:11;;;;;;;7.37;5.30;;;;;;;18.15;81.80;101482.56;5285147;28;20056;-74
2022/07/31 05:44:43;;;;;;;8.93;5.60;;;;;;;18.23;81.82;101484.00;5285189;28;20029;-74
2022/07/31 05:47:14;;;;;;;8.27;5.10;;;;;;;18.24;81.88;101482.25;5263854;28;20037;-73
2022/07/31 05:49:45;;;;;;;10.67;5.20;;;;;;;18.25;81.57;101491.88;5281461;28;20044;-73
2022/07/31 05:52:17;;;;;;;8.73;5.47;;;;;;;18.26;82.16;101493.59;5282393;28;20437;-74
2022/07/31 05:54:48;;;;;;;10.77;4.63;;;;;;;18.32;81.87;101488.13;5281818;28;20027;-75
2022/07/31 05:57:20;;;;;;;7.33;4.53;;;;;;;18.33;81.61;101486.34;5282463;28;20154;-74
2022/07/31 05:59:51;;;;;;;7.23;5.03;;;;;;;18.31;82.00;101482.91;5281463;28;20491;-74
2022/07/31 06:02:22;;;;;;;6.60;5.07;;;;;;;18.46;82.77;101489.41;5281856;28;20037;-74
2022/07/31 06:04:54;;;;;;;7.73;5.23;;;;;;;18.50;82.58;101486.63;5282143;28;20094;-74
2022/07/31 06:07:25;;;;;;;7.93;5.43;;;;;;;18.56;81.51;101489.06;5281193;28;20028;-74
2022/07/31 06:09:57;;;;;;;9.53;4.97;;;;;;;18.57;82.28;101490.75;5282025;28;20543;-74
2022/07/31 06:12:28;;;;;;;7.83;5.07;;;;;;;18.45;81.88;101490.31;5285072;28;20033;-74
2022/07/31 06:14:59;;;;;;;7.33;4.83;;;;;;;18.51;81.55;101493.63;5285136;28;20101;-73
2022/07/31 06:17:31;;;;;;;8.93;5.80;;;;;;;18.48;82.27;101499.03;5285680;28;20033;-74
2022/07/31 06:20:03;;;;;;;7.47;5.30;;;;;;;18.42;82.16;101493.97;5285588;28;20139;-74
2022/07/31 06:22:35;;;;;;;7.72;5.63;;;;;;;18.45;83.03;101499.13;5267146;28;20379;-74
2022/07/31 06:25:10;;;;;;;;;;;;;;;18.63;80.71;101494.09;5285854;28;20032;-73
2022/07/31 06:27:41;;;;;;;8.40;5.50;;;;;;;18.49;82.44;101476.97;5284999;28;20359;-74
2022/07/31 06:30:13;;;;;;;9.20;5.40;;;;;;;18.51;82.59;101482.19;5284579;28;20040;-74
2022/07/31 06:32:45;;;;;;;7.32;4.68;;;;;;;18.61;82.76;101480.09;5285082;28;20278;-75
2022/07/31 06:35:16;;;;;;;7.90;5.07;;;;;;;18.67;82.19;101482.53;5285097;28;20046;-77
2022/07/31 06:37:47;;;;;;;9.10;4.97;;;;;;;18.68;82.91;101486.91;5284869;28;20037;-77
2022/07/31 06:40:19;;;;;;;11.83;6.17;;;;;;;18.57;83.00;101480.19;5284818;28;20433;-76
2022/07/31 06:42:50;;;;;;;9.33;5.50;;;;;;;18.65;82.71;101481.72;5267035;28;20442;-77
2022/07/31 06:45:21;;;;;;;8.63;6.30;;;;;;;18.51;83.27;101488.34;5284919;28;20033;-76
2022/07/31 06:47:53;;;;;;;7.40;5.70;;;;;;;18.50;83.83;101476.06;5284922;28;20526;-77
2022/07/31 06:50:24;;;;;;;7.33;5.30;;;;;;;18.66;84.02;101486.97;5284370;28;20045;-79
2022/07/31 06:52:56;;;;;;;10.43;5.77;;;;;;;18.74;83.36;101484.91;5285096;28;20412;-78
2022/07/31 06:55:27;;;;;;;10.17;5.90;;;;;;;18.81;83.30;101488.19;5284794;28;20039;-78
2022/07/31 06:57:58;;;;;;;6.27;5.20;;;;;;;18.93;82.16;101481.59;5285298;28;20086;-80
2022/07/31 07:00:30;;;;;;;6.20;5.07;;;;;;;19.02;81.73;101486.56;5284356;28;20032;-78
2022/07/31 07:03:01;;;;;;;9.50;5.93;;;;;;;19.08;81.24;101485.50;5284420;28;20029;-79
2022/07/31 07:05:33;;;;;;;7.77;5.57;;;;;;;19.23;82.35;101482.25;5284557;28;20028;-79
2022/07/31 07:08:04;;;;;;;8.83;5.57;;;;;;;19.33;81.75;101479.25;5284907;28;20028;-80
2022/07/31 07:10:35;;;;;;;9.37;6.27;;;;;;;19.37;80.82;101483.50;5286935;28;20059;-79
2022/07/31 07:13:07;;;;;;;10.30;7.27;;;;;;;19.38;80.42;101494.00;5296279;28;20192;-77
2022/07/31 07:15:38;;;;;;;10.53;6.67;;;;;;;19.28;80.90;101477.66;5285334;28;20105;-77
2022/07/31 07:18:09;;;;;;;9.60;6.83;;;;;;;19.26;81.08;101486.56;5284243;28;20471;-77
2022/07/31 07:20:41;;;;;;;10.27;8.57;;;;;;;19.39;80.95;101486.97;5284793;28;20039;-77
2022/07/31 07:23:12;;;;;;;8.60;7.33;;;;;;;19.46;80.92;101481.38;5282942;28;20024;-77
2022/07/31 07:25:44;;;;;;;8.67;7.77;;;;;;;19.66;80.20;101488.53;5284836;28;20120;-77
2022/07/31 07:28:16;;;;;;;10.10;7.05;;;;;;;19.84;79.77;101483.44;5249647;28;20113;-79
2022/07/31 07:30:48;;;;;;;9.98;8.00;;;;;;;19.95;78.86;101477.72;5283353;28;20039;-78
2022/07/31 07:33:19;;;;;;;9.65;7.45;;;;;;;20.09;79.43;101477.13;5265759;28;20361;-78
2022/07/31 07:35:51;;;;;;;10.87;7.97;;;;;;;20.31;77.29;101480.59;5266210;28;20037;-78
2022/07/31 07:38:22;;;;;;;11.47;8.43;;;;;;;20.34;77.20;101472.53;5266614;28;20036;-78
2022/07/31 07:40:54;;;;;;;10.70;8.93;;;;;;;20.70;76.01;101474.53;5283548;28;20119;-77
2022/07/31 07:43:25;;;;;;;11.00;8.80;;;;;;;20.71;75.89;101464.81;5266430;28;20079;-78
2022/07/31 07:45:57;;;;;;;11.17;9.83;;;;;;;20.36;76.49;101472.47;5283532;28;20094;-78
2022/07/31 07:48:28;;;;;;;17.73;11.05;;;;;;;20.49;76.18;101467.50;5283517;28;20025;-77
2022/07/31 07:51:00;;;;;;;10.97;9.80;;;;;;;20.51;76.18;101469.16;5283936;28;20086;-76
2022/07/31 07:53:31;;;;;;;10.77;9.70;;;;;;;20.41;76.33;101473.13;5284595;28;20031;-77
2022/07/31 07:56:03;;;;;;;10.23;9.17;;;;;;;20.33;76.77;101464.66;5285060;28;20430;-78
2022/07/31 07:58:34;;;;;;;12.77;9.75;;;;;;;20.46;76.59;101475.56;5288657;28;20029;-77
2022/07/31 08:01:06;;;;;;;13.93;10.27;;;;;;;20.43;77.04;101467.75;5283617;28;20538;-77
2022/07/31 08:03:37;;;;;;;10.87;9.60;;;;;;;20.66;76.80;101470.31;5283312;28;20555;-76
2022/07/31 08:06:08;;;;;;;11.57;10.27;;;;;;;20.58;76.17;101469.75;5283298;28;20384;-76
2022/07/31 08:08:40;;;;;;;12.20;9.90;;;;;;;20.92;76.54;101471.78;5283913;28;20146;-75
2022/07/31 08:11:11;;;;;;;11.43;9.57;;;;;;;20.90;74.83;101468.34;5283563;28;20060;-77
2022/07/31 08:13:43;;;;;;;11.80;9.07;;;;;;;21.03;75.01;101470.44;5283826;28;20036;-78
2022/07/31 08:16:14;;;;;;;11.38;9.88;;;;;;;21.15;74.05;101472.50;5283743;28;20032;-77
2022/07/31 08:18:47;;;;;;;12.00;9.13;;;;;;;21.44;72.76;101471.13;5283697;28;20036;-77
2022/07/31 08:21:19;;;;;;;10.65;9.57;;;;;;;21.66;73.19;101465.72;5283356;28;20518;-78
2022/07/31 08:23:51;;;;;;;10.37;8.50;;;;;;;21.84;71.62;101455.13;5283263;28;20037;-77
2022/07/31 08:26:22;;;;;;;;;;;;;;;22.35;70.61;101463.22;5283567;28;20318;-78
2022/07/31 08:28:54;;;;;;;12.17;8.70;;;;;;;21.99;70.22;101459.69;5283323;28;19970;-77
2022/07/31 08:31:25;;;;;;;9.23;8.30;;;;;;;21.97;72.13;101458.03;5264819;28;20035;-78
2022/07/31 08:33:56;;;;;;;9.50;8.53;;;;;;;22.06;71.68;101454.03;5283124;28;20040;-78
2022/07/31 08:36:28;;;;;;;9.50;8.53;;;;;;;22.26;70.24;101461.00;5265403;28;20448;-77
2022/07/31 08:38:59;;;;;;;12.13;8.13;;;;;;;22.26;70.38;101463.66;5283492;28;20039;-77
2022/07/31 08:41:37;;;;;;;9.43;8.43;;;;;;;21.94;70.49;101467.00;5288545;28;20096;-77
2022/07/31 08:44:09;;;;;;;11.85;7.90;;;;;;;21.84;72.35;101466.59;5295838;28;20071;-77
2022/07/31 08:46:40;;;;;;;11.83;8.40;;;;;;;21.81;72.00;101465.88;5291848;28;20032;-78
2022/07/31 08:49:15;;;;;;;9.67;8.23;;;;;;;21.52;73.94;101459.34;5286562;28;20109;-79
2022/07/31 08:51:47;;;;;;;9.80;8.68;;;;;;;21.47;73.39;101459.53;5282927;28;20017;-77
2022/07/31 08:54:20;;;;;;;9.20;7.90;;;;;;;21.38;73.40;101462.63;5283227;28;20037;-77
2022/07/31 08:56:52;;;;;;;8.38;6.88;;;;;;;21.35;74.15;101476.91;5282863;28;20032;-76
2022/07/31 08:59:24;;;;;;;10.88;7.90;;;;;;;21.39;75.17;101464.34;5282948;28;20074;-77
2022/07/31 09:01:57;;;;;;;10.35;6.85;;;;;;;21.63;72.91;101470.31;5265777;28;20191;-76
2022/07/31 09:04:29;;;;;;;8.60;7.20;;;;;;;21.69;74.33;101470.00;5282249;28;20158;-75
2022/07/31 09:07:00;;;;;;;9.20;7.55;;;;;;;21.95;73.55;101463.41;5281767;28;20163;-77
2022/07/31 09:09:31;;;;;;;10.37;7.17;;;;;;;22.16;73.17;101460.63;5282607;28;20157;-78
2022/07/31 09:12:03;;;;;;;7.37;6.67;;;;;;;22.15;69.98;101465.09;5282561;28;20028;-76
2022/07/31 09:14:34;;;;;;;9.40;6.50;;;;;;;22.13;70.75;101456.31;5282288;28;20033;-77
2022/07/31 09:17:14;;;;;;;9.43;7.93;;;;;;;21.90;70.91;101453.97;5264018;28;20035;-76
2022/07/31 09:19:46;;;;;;;9.63;7.22;;;;;;;21.89;71.61;101452.25;5282555;28;20360;-76
2022/07/31 09:22:22;;;;;;;9.60;6.68;;;;;;;22.08;71.17;101449.53;5282068;28;20469;-77
2022/07/31 09:25:14;;;;;;;9.30;6.53;;;;;;;22.43;71.21;101453.06;5263805;28;20123;-78
2022/07/31 09:27:47;;;;;;;10.33;7.03;;;;;;;22.67;70.23;101453.56;5282909;28;20021;-78
2022/07/31 09:30:18;;;;;;;;;;;;;;;23.12;68.06;101457.38;5282598;28;20396;-78
2022/07/31 09:32:49;;;;;;;7.33;6.03;;;;;;;22.84;68.27;101457.97;5282944;28;19999;-78
2022/07/31 09:35:21;;;;;;;8.33;6.97;;;;;;;22.82;68.00;101459.00;5282407;28;20044;-78
2022/07/31 09:37:52;;;;;;;8.63;6.60;;;;;;;23.05;69.11;101457.75;5282459;28;20368;-77
2022/07/31 09:40:33;;;;;;;8.83;6.83;;;;;;;23.29;66.88;101466.22;5282501;28;20087;-75
2022/07/31 09:43:16;;;;;;;8.77;6.85;;;;;;;23.38;66.57;101456.88;5282113;28;20293;-74
2022/07/31 09:46:00;;;;;;;8.23;6.45;;;;;;;23.61;65.88;101461.75;5284078;28;20024;-75
2022/07/31 09:48:33;;;;;;;9.25;6.95;;;;;;;23.82;64.18;101450.81;5286165;28;20021;-75
2022/07/31 09:51:06;;;;;;;9.30;6.38;;;;;;;23.59;64.16;101444.16;5286092;28;20139;-76
2022/07/31 09:53:40;;;;;;;8.38;6.22;;;;;;;23.93;64.25;101448.41;5286510;28;20464;-76
2022/07/31 09:56:13;;;;;;;9.40;6.50;;;;;;;23.95;64.03;101445.66;5286790;28;20107;-75
2022/07/31 09:58:44;;;;;;;9.05;5.90;;;;;;;24.15;63.37;101441.81;5286280;28;20050;-76
2022/07/31 10:01:17;;;;;;;9.07;6.10;;;;;;;24.50;62.41;101441.47;5285985;28;20029;-77
2022/07/31 10:03:50;;;;;;;10.85;5.47;;;;;;;24.56;61.38;101435.81;5285738;28;20032;-77
2022/07/31 10:06:24;;;;;;;6.50;4.93;;;;;;;24.54;63.04;101433.22;5267875;28;20024;-77
2022/07/31 10:08:56;;;;;;;7.72;5.57;;;;;;;24.18;62.67;101441.63;5285883;28;20082;-77
2022/07/31 10:11:29;;;;;;;6.18;4.80;;;;;;;24.09;64.12;101448.38;5286595;28;20059;-76
2022/07/31 10:14:02;;;;;;;7.47;4.95;;;;;;;24.10;63.07;101452.75;5289043;28;20028;-77
2022/07/31 10:16:36;;;;;;;7.57;5.50;;;;;;;23.84;63.56;101449.81;5286250;28;20020;-76
2022/07/31 10:19:11;;;;;;;8.55;5.15;;;;;;;23.95;63.91;101443.00;5286119;28;20166;-77
2022/07/31 10:21:50;;;;;;;8.57;4.32;;;;;;;24.12;63.86;101429.53;5286571;28;20048;-76
2022/07/31 10:24:26;;;;;;;7.40;3.90;;;;;;;24.07;63.44;101434.28;5286151;28;20033;-75
2022/07/31 10:26:58;;;;;;;6.50;4.22;;;;;;;24.02;63.81;101436.34;5285488;28;20029;-75
2022/07/31 10:29:30;;;;;;;8.98;4.82;;;;;;;24.02;62.83;101447.00;5284941;28;20069;-76
2022/07/31 10:32:02;;;;;;;5.20;4.20;;;;;;;24.23;61.81;101439.56;5285279;28;20130;-75
2022/07/31 10:34:34;;;;;;;7.05;4.53;;;;;;;24.46;62.34;101434.66;5285966;28;20035;-75
2022/07/31 10:37:15;;;;;;;6.32;4.13;;;;;;;24.70;61.31;101424.31;5285789;28;20044;-76
2022/07/31 10:40:05;;;;;;;14.68;4.30;;;;;;;25.08;59.62;101426.34;5285859;28;20364;-77
2022/07/31 10:42:47;;;;;;;6.50;3.20;;;;;;;25.41;61.82;101425.16;5285332;28;20115;-76
2022/07/31 10:45:18;;;;;;;6.22;3.50;;;;;;;25.55;58.51;101418.91;5267033;28;20039;-76
2022/07/31 10:48:01;;;;;;;8.57;3.90;;;;;;;25.43;58.10;101432.09;5285058;28;20032;-77
2022/07/31 10:50:33;;;;;;;4.90;3.70;;;;;;;25.05;58.51;101427.41;5285047;28;20040;-76
2022/07/31 10:53:09;;;;;;;7.32;4.20;;;;;;;24.83;59.82;101422.59;5285327;28;20031;-77
2022/07/31 10:55:42;;;;;;;9.27;3.60;;;;;;;24.59;60.33;101419.63;5287452;28;20036;-76
2022/07/31 10:58:18;;;;;;;4.57;3.45;;;;;;;24.30;61.57;101419.56;5298552;28;20054;-75
2022/07/31 11:01:06;;;;;;;5.75;3.63;;;;;;;23.93;62.31;101420.94;5290076;28;20384;-76
2022/07/31 11:03:45;;;;;;;5.22;3.53;;;;;;;24.06;62.02;101421.06;5286164;28;20144;-75
2022/07/31 11:06:17;;;;;;;7.47;3.75;;;;;;;24.31;61.44;101410.66;5284754;28;20029;-75
2022/07/31 11:08:51;;;;;;;5.63;3.70;;;;;;;24.40;61.85;101402.06;5284233;28;20463;-75
2022/07/31 11:11:33;;;;;;;5.53;3.70;;;;;;;24.88;62.32;101403.63;5284862;28;20035;-76
2022/07/31 11:14:05;;;;;;;6.43;3.45;;;;;;;25.05;61.28;101408.75;5284853;28;20032;-75
2022/07/31 11:16:48;;;;;;;5.60;3.70;;;;;;;25.29;59.85;101409.00;5284932;28;20074;-75
2022/07/31 11:19:20;;;;;;;4.93;3.47;;;;;;;25.36;59.47;101411.25;5284739;28;20149;-75
2022/07/31 11:21:56;;;;;;;8.27;3.42;;;;;;;25.74;57.61;101403.38;5266535;28;20040;-75
2022/07/31 11:24:27;;;;;;;5.22;3.28;;;;;;;25.39;57.16;101413.72;5284468;28;20056;-76
2022/07/31 11:26:59;;;;;;;8.65;3.75;;;;;;;25.25;58.19;101401.25;5284568;28;20067;-76
2022/07/31 11:29:37;;;;;;;3.93;2.73;;;;;;;25.69;57.36;101396.66;5284603;28;20032;-74
2022/07/31 11:32:14;;;;;;;6.53;3.08;;;;;;;25.62;57.23;101382.84;5284716;28;20025;-76
2022/07/31 11:34:47;;;;;;;7.05;3.03;;;;;;;25.51;57.02;101406.75;5284556;28;20029;-77
2022/07/31 11:37:24;;;;;;;7.18;2.95;;;;;;;27.31;53.00;101396.06;5266975;28;20032;-77
2022/07/31 11:39:57;;;;;;;6.10;3.10;;;;;;;27.90;49.66;101398.75;5284672;28;20062;-77
2022/07/31 11:42:28;;;;;;;4.63;2.80;;;;;;;27.11;51.84;101382.28;5277537;28;20046;-78
2022/07/31 11:45:04;;;;;;;5.22;2.55;;;;;;;26.89;55.10;101386.53;5291197;28;20416;-77
2022/07/31 11:47:40;;;;;;;4.80;2.80;;;;;;;26.96;52.31;101386.94;5286525;28;20368;-77
2022/07/31 11:50:12;;;;;;;6.35;3.35;;;;;;;26.33;54.74;101386.91;5284238;28;20048;-77